createdAt,value
2019-05-07T00:02:32.145Z,98.50
2019-05-07T00:06:36.452Z,98.70
2019-05-07T00:10:42.488Z,98.70
2019-05-07T00:14:58.134Z,98.60
2019-05-07T00:18:52.667Z,98.50
2019-05-07T00:22:56.847Z,98.50
2019-05-07T00:27:02.835Z,98.50
2019-05-07T00:31:06.985Z,98.50
2019-05-07T00:35:13.104Z,98.50
2019-05-07T00:39:54.756Z,98.50
2019-05-07T00:43:59.695Z,98.50
2019-05-07T00:48:04.071Z,98.50
2019-05-07T00:52:11.296Z,98.60
2019-05-07T00:56:14.254Z,98.50
2019-05-07T01:00:18.539Z,98.50
2019-05-07T01:04:23.084Z,98.40
2019-05-07T01:08:27.472Z,98.60
2019-05-07T01:12:32.842Z,98.50
2019-05-07T01:16:37.423Z,98.60
2019-05-07T01:20:42.338Z,98.40
2019-05-07T01:24:47.343Z,98.40
2019-05-07T01:29:02.993Z,98.40
2019-05-07T01:33:14.379Z,98.60
2019-05-07T01:37:18.591Z,98.30
2019-05-07T01:41:23.139Z,98.30
2019-05-07T01:45:27.387Z,98.50
2019-05-07T01:49:33.118Z,98.40
2019-05-07T01:53:37.586Z,98.50
2019-05-07T01:57:42.168Z,98.50
2019-05-07T02:01:47.995Z,98.60
2019-05-07T02:06:17.179Z,98.60
2019-05-07T02:10:36.029Z,98.30
2019-05-07T02:14:42.137Z,98.60
2019-05-07T02:18:46.199Z,98.50
2019-05-07T02:22:50.409Z,98.60
2019-05-07T02:26:54.616Z,98.80
2019-05-07T02:30:58.996Z,98.70
2019-05-07T02:35:04.179Z,98.60
2019-05-07T02:39:14.912Z,98.70
2019-05-07T02:43:19.148Z,98.60
2019-05-07T02:47:23.753Z,98.60
2019-05-07T02:51:33.674Z,98.50
2019-05-07T02:55:43.716Z,98.60
2019-05-07T02:59:48.026Z,98.70
2019-05-07T03:03:52.811Z,98.70
2019-05-07T03:07:57.392Z,98.60
2019-05-07T03:12:04.034Z,98.60
2019-05-07T03:16:07.789Z,98.50
2019-05-07T03:20:16.076Z,98.60
2019-05-07T03:24:26.498Z,98.50
2019-05-07T03:28:33.615Z,98.60
2019-05-07T03:32:47.934Z,98.70
2019-05-07T03:36:56.423Z,98.30
2019-05-07T03:40:59.307Z,98.30
2019-05-07T03:45:33.469Z,98.40
2019-05-07T03:49:37.592Z,98.40
2019-05-07T03:53:43.610Z,98.40
2019-05-07T03:57:47.711Z,98.50
2019-05-07T04:01:53.822Z,98.20
2019-05-07T04:05:57.837Z,98.80
2019-05-07T04:10:04.339Z,98.50
2019-05-07T04:14:07.942Z,98.50
2019-05-07T04:18:13.130Z,98.40
2019-05-07T04:22:19.144Z,98.50
2019-05-07T04:26:44.765Z,98.50
2019-05-07T04:30:49.079Z,98.40
2019-05-07T04:35:18.415Z,98.50
2019-05-07T04:39:23.372Z,98.60
2019-05-07T04:43:27.685Z,98.70
2019-05-07T04:47:42.173Z,98.80
2019-05-07T04:51:59.639Z,98.60
2019-05-07T04:56:03.928Z,98.90
2019-05-07T05:00:13.158Z,99.00
2019-05-07T05:04:25.474Z,98.90
2019-05-07T05:08:23.329Z,98.70
2019-05-07T05:12:27.964Z,98.70
2019-05-07T05:16:32.756Z,98.80
2019-05-07T05:20:43.406Z,98.60
2019-05-07T05:24:52.301Z,98.90
2019-05-07T05:28:56.471Z,99.10
2019-05-07T05:33:02.219Z,99.00
2019-05-07T05:37:06.551Z,99.10
2019-05-07T05:41:12.303Z,99.10
2019-05-07T05:45:37.675Z,99.10
2019-05-07T05:49:42.903Z,99.10
2019-05-07T05:53:52.488Z,99.30
2019-05-07T05:58:04.607Z,99.30
2019-05-07T06:02:27.874Z,99.20
2019-05-07T06:06:42.228Z,99.40
2019-05-07T06:11:02.089Z,99.40
2019-05-07T06:15:12.653Z,99.50
2019-05-07T06:19:22.642Z,99.60
2019-05-07T06:23:42.088Z,99.60
2019-05-07T06:27:46.404Z,99.90
2019-05-07T06:32:02.777Z,99.90
2019-05-07T06:36:07.015Z,99.90
2019-05-07T06:40:33.524Z,99.90
2019-05-07T06:44:37.813Z,99.80
2019-05-07T06:48:45.334Z,99.90
2019-05-07T06:52:48.011Z,99.90
2019-05-07T06:56:52.479Z,99.90
2019-05-07T07:01:11.933Z,99.90
2019-05-07T07:05:25.358Z,99.90
2019-05-07T07:09:35.022Z,99.90
2019-05-07T07:13:39.319Z,99.90
2019-05-07T07:17:43.544Z,99.90
2019-05-07T07:21:47.768Z,99.90
2019-05-07T07:25:52.326Z,99.90
2019-05-07T07:30:14.680Z,99.90
2019-05-07T07:34:18.955Z,99.90
2019-05-07T07:38:32.977Z,99.90
2019-05-07T07:42:37.484Z,99.90
2019-05-07T07:46:42.446Z,99.90
2019-05-07T07:50:46.833Z,99.90
2019-05-07T07:54:52.908Z,99.90
2019-05-07T07:59:06.495Z,99.90
2019-05-07T08:03:13.388Z,99.90
2019-05-07T08:07:17.619Z,99.90
2019-05-07T08:11:22.077Z,99.90
2019-05-07T08:15:26.254Z,99.90
2019-05-07T08:19:32.537Z,99.80
2019-05-07T08:23:36.327Z,99.90
2019-05-07T08:27:42.016Z,99.80
2019-05-07T08:31:53.655Z,99.70
2019-05-07T08:36:17.715Z,99.70
2019-05-07T08:40:22.161Z,99.80
2019-05-07T08:44:32.531Z,99.70
2019-05-07T08:48:42.486Z,99.50
2019-05-07T08:52:46.855Z,99.50
2019-05-07T08:56:52.768Z,99.80
2019-05-07T09:00:57.081Z,99.70
2019-05-07T09:05:02.924Z,99.70
2019-05-07T09:09:13.052Z,99.40
2019-05-07T09:13:17.621Z,99.60
2019-05-07T09:17:22.971Z,99.70
2019-05-07T09:25:32.653Z,99.50
2019-05-07T09:29:55.911Z,99.90
2019-05-07T09:34:00.211Z,99.80
2019-05-07T09:38:04.504Z,99.70
2019-05-07T09:42:08.794Z,99.50
2019-05-07T09:46:12.996Z,99.50
2019-05-07T09:50:17.216Z,99.50
2019-05-07T09:54:23.088Z,99.60
2019-05-07T09:58:36.475Z,99.80
2019-05-07T10:02:33.243Z,99.80
2019-05-07T10:06:37.607Z,99.90
2019-05-07T10:10:42.282Z,99.60
2019-05-07T10:14:46.563Z,99.50
2019-05-07T10:18:52.037Z,99.40
2019-05-07T10:22:56.219Z,99.20
2019-05-07T10:27:02.252Z,99.20
2019-05-07T10:31:06.395Z,99.00
2019-05-07T10:35:12.822Z,98.90
2019-05-07T10:39:17.463Z,99.10
2019-05-07T10:43:22.312Z,99.00
2019-05-07T10:47:48.954Z,98.50
2019-05-07T10:51:53.252Z,98.70
2019-05-07T10:55:57.479Z,97.90
2019-05-07T11:00:03.161Z,98.30
2019-05-07T11:04:07.483Z,98.50
2019-05-07T11:08:11.720Z,98.50
2019-05-07T11:12:15.962Z,98.10
2019-05-07T11:16:22.161Z,98.20
2019-05-07T11:20:26.419Z,98.40
2019-05-07T11:24:32.105Z,98.20
2019-05-07T11:28:36.351Z,98.30
2019-05-07T11:32:42.796Z,98.40
2019-05-07T11:36:46.487Z,98.50
2019-05-07T11:40:51.792Z,98.70
2019-05-07T11:44:56.159Z,98.20
2019-05-07T11:49:19.448Z,98.10
2019-05-07T11:53:23.928Z,97.50
2019-05-07T11:57:28.139Z,97.90
2019-05-07T12:01:43.594Z,98.30
2019-05-07T12:05:38.710Z,98.10
2019-05-07T12:09:42.927Z,98.20
2019-05-07T12:13:47.116Z,98.20
2019-05-07T12:17:52.204Z,98.20
2019-05-07T12:21:56.671Z,98.20
2019-05-07T12:26:02.255Z,98.30
2019-05-07T12:30:08.628Z,98.10
2019-05-07T12:34:16.877Z,98.30
2019-05-07T12:38:21.908Z,98.60
2019-05-07T12:42:26.419Z,98.20
2019-05-07T12:46:33.153Z,98.50
2019-05-07T12:50:37.035Z,98.50
2019-05-07T12:55:03.375Z,98.40
2019-05-07T12:59:07.755Z,98.90
2019-05-07T13:03:16.983Z,97.90
2019-05-07T13:07:41.679Z,98.10
2019-05-07T13:11:45.360Z,98.30
2019-05-07T13:15:51.647Z,96.70
2019-05-07T13:19:58.598Z,96.60
2019-05-07T13:24:02.885Z,96.30
2019-05-07T13:28:07.183Z,96.70
2019-05-07T13:32:14.058Z,96.60
2019-05-07T13:36:18.310Z,96.50
2019-05-07T13:40:36.802Z,96.60
2019-05-07T13:44:52.069Z,96.70
2019-05-07T13:48:56.355Z,96.50
2019-05-07T13:53:01.759Z,96.30
2019-05-07T13:57:06.088Z,95.40
2019-05-07T14:01:18.401Z,94.90
2019-05-07T14:05:22.730Z,94.50
2019-05-07T14:09:27.051Z,95.70
2019-05-07T14:13:31.276Z,95.90
2019-05-07T14:17:35.507Z,95.70
2019-05-07T14:21:41.964Z,95.80
2019-05-07T14:25:45.602Z,95.60
2019-05-07T14:29:51.773Z,95.30
2019-05-07T14:34:05.146Z,95.20
2019-05-07T14:38:18.610Z,95.40
2019-05-07T14:42:34.739Z,94.90
2019-05-07T14:46:47.363Z,95.40
2019-05-07T14:50:45.111Z,95.80
2019-05-07T14:54:49.516Z,95.10
2019-05-07T14:58:53.832Z,95.10
2019-05-07T15:02:58.047Z,96.10
2019-05-07T15:07:02.558Z,96.20
2019-05-07T15:11:06.772Z,96.50
2019-05-07T15:15:12.622Z,96.60
2019-05-07T15:19:16.933Z,95.20
2019-05-07T15:23:28.851Z,95.80
2019-05-07T15:27:34.011Z,96.30
2019-05-07T15:32:00.611Z,96.40
2019-05-07T15:36:06.602Z,96.60
2019-05-07T15:40:11.762Z,97.10
2019-05-07T15:44:15.979Z,97.50
2019-05-07T15:48:22.010Z,98.00
2019-05-07T15:52:58.222Z,97.80
2019-05-07T16:01:02.255Z,99.90
2019-05-07T16:05:06.849Z,98.70
2019-05-07T16:09:12.905Z,98.80
2019-05-07T16:13:22.462Z,99.20
2019-05-07T16:17:34.208Z,98.80
2019-05-07T16:21:38.427Z,98.30
2019-05-07T16:29:46.662Z,96.80
2019-05-07T16:33:52.134Z,96.70
2019-05-07T16:37:56.375Z,95.80
2019-05-07T16:42:01.869Z,95.50
2019-05-07T16:46:06.190Z,94.30
2019-05-07T16:50:12.778Z,94.10
2019-05-07T16:54:16.563Z,93.50
2019-05-07T16:58:42.597Z,92.10
2019-05-07T17:02:48.076Z,91.50
2019-05-07T17:06:55.080Z,91.90
2019-05-07T17:10:58.218Z,92.00
2019-05-07T17:15:03.046Z,91.60
2019-05-07T17:19:07.568Z,91.60
2019-05-07T17:23:11.950Z,91.40
2019-05-07T17:27:16.216Z,91.90
2019-05-07T17:31:22.728Z,91.50
2019-05-07T17:35:26.345Z,91.10
2019-05-07T17:39:32.139Z,91.60
2019-05-07T17:43:36.595Z,91.90
2019-05-07T17:47:42.470Z,91.90
2019-05-07T17:51:46.838Z,91.40
2019-05-07T17:55:52.969Z,91.10
2019-05-07T17:59:56.974Z,91.80
2019-05-07T18:04:02.941Z,91.80
2019-05-07T18:08:07.292Z,91.70
2019-05-07T18:12:12.155Z,92.00
2019-05-07T18:20:27.760Z,92.20
2019-05-07T18:24:32.545Z,92.30
2019-05-07T18:28:37.091Z,92.50
2019-05-07T18:32:45.622Z,92.50
2019-05-07T18:36:49.832Z,92.50
2019-05-07T18:40:54.070Z,92.60
2019-05-07T18:44:58.263Z,92.60
2019-05-07T18:49:03.421Z,93.20
2019-05-07T18:53:07.719Z,93.20
2019-05-07T18:57:11.959Z,92.90
2019-05-07T19:01:18.529Z,93.00
2019-05-07T19:05:22.735Z,93.00
2019-05-07T19:09:27.092Z,93.00
2019-05-07T19:13:32.645Z,93.10
2019-05-07T19:17:37.008Z,93.10
2019-05-07T19:21:42.274Z,93.10
2019-05-07T19:25:46.640Z,93.20
2019-05-07T19:29:50.860Z,93.20
2019-05-07T19:33:55.076Z,93.20
2019-05-07T19:37:59.334Z,93.20
2019-05-07T19:42:03.578Z,93.30
2019-05-07T19:46:07.871Z,93.30
2019-05-07T19:50:12.609Z,93.30
2019-05-07T19:54:16.920Z,93.30
2019-05-07T19:58:22.952Z,93.30
2019-05-07T20:02:32.122Z,93.30
2019-05-07T20:06:36.423Z,93.40
2019-05-07T20:10:47.359Z,93.40
2019-05-07T20:14:51.770Z,93.30
2019-05-07T20:18:56.006Z,93.40
2019-05-07T20:23:02.410Z,93.50
2019-05-07T20:27:06.159Z,93.40
2019-05-07T20:31:12.176Z,93.40
2019-05-07T20:35:16.557Z,93.50
2019-05-07T20:39:23.112Z,93.50
2019-05-07T20:43:26.803Z,93.60
2019-05-07T20:47:32.577Z,93.50
2019-05-07T20:51:36.898Z,93.60
2019-05-07T20:55:45.846Z,93.50
2019-05-07T20:59:50.233Z,93.40
2019-05-07T21:03:54.570Z,93.50
2019-05-07T21:07:58.949Z,93.50
2019-05-07T21:12:03.391Z,93.40
2019-05-07T21:16:07.680Z,93.50
2019-05-07T21:20:12.188Z,93.40
2019-05-07T21:24:16.502Z,93.40
2019-05-07T21:28:20.704Z,93.50
2019-05-07T21:32:24.915Z,93.50
2019-05-07T21:36:29.129Z,93.40
2019-05-07T21:40:33.368Z,93.40
2019-05-07T21:44:37.586Z,93.40
2019-05-07T21:48:41.815Z,93.50
2019-05-07T21:52:51.476Z,93.50
2019-05-07T21:57:24.858Z,93.50
2019-05-07T22:01:32.889Z,93.60
2019-05-07T22:05:37.155Z,93.70
2019-05-07T22:09:44.134Z,93.60
2019-05-07T22:13:48.328Z,93.50
2019-05-07T22:17:52.542Z,93.50
2019-05-07T22:21:56.749Z,93.50
2019-05-07T22:26:18.572Z,93.50
2019-05-07T22:30:09.219Z,93.40
2019-05-07T22:34:31.360Z,93.40
2019-05-07T22:38:35.614Z,93.50
2019-05-07T22:42:39.842Z,93.60
2019-05-07T22:46:44.134Z,93.60
2019-05-07T22:50:48.419Z,93.60
2019-05-07T22:54:52.627Z,93.60
2019-05-07T22:58:57.559Z,93.60
2019-05-07T23:03:02.732Z,93.70
2019-05-07T23:07:07.178Z,93.70
2019-05-07T23:11:12.275Z,93.70
2019-05-07T23:15:17.262Z,93.70
2019-05-07T23:19:22.074Z,93.60
2019-05-07T23:23:26.693Z,93.60
2019-05-07T23:27:32.533Z,93.50
2019-05-07T23:31:36.980Z,93.50
2019-05-07T23:35:42.177Z,93.60
2019-05-07T23:39:48.350Z,93.50
2019-05-07T23:44:13.172Z,93.70
2019-05-07T23:48:17.388Z,93.70
2019-05-07T23:52:22.557Z,93.70
2019-05-07T23:56:26.875Z,93.70
